createdAt,value
2022-12-24T00:01:01.848Z,11.10
2022-12-24T00:03:29.064Z,11.10
2022-12-24T00:05:55.943Z,11.10
2022-12-24T00:08:22.733Z,11.10
2022-12-24T00:10:52.184Z,11.10
2022-12-24T00:13:19.966Z,11.10
2022-12-24T00:15:46.928Z,11.10
2022-12-24T00:18:13.755Z,11.10
2022-12-24T00:20:40.650Z,11.10
2022-12-24T00:23:07.415Z,11.10
2022-12-24T00:25:34.182Z,11.10
2022-12-24T00:28:00.874Z,11.10
2022-12-24T00:30:27.645Z,11.10
2022-12-24T00:32:54.832Z,11.10
2022-12-24T00:35:21.977Z,11.10
2022-12-24T00:37:49.468Z,11.10
2022-12-24T00:40:17.442Z,11.10
2022-12-24T00:42:44.676Z,11.00
2022-12-24T00:45:12.615Z,11.00
2022-12-24T00:47:39.451Z,11.00
2022-12-24T00:50:07.336Z,11.00
2022-12-24T00:52:34.110Z,11.00
2022-12-24T00:55:00.882Z,11.00
2022-12-24T00:57:27.773Z,10.90
2022-12-24T00:59:54.511Z,10.90
2022-12-24T01:02:21.367Z,10.90
2022-12-24T01:05:06.770Z,10.90
2022-12-24T01:07:33.740Z,10.80
2022-12-24T01:10:00.441Z,10.80
2022-12-24T01:12:27.863Z,10.80
2022-12-24T01:14:54.612Z,10.80
2022-12-24T01:17:21.601Z,10.70
2022-12-24T01:19:48.455Z,10.70
2022-12-24T01:22:15.236Z,10.70
2022-12-24T01:24:42.851Z,10.60
2022-12-24T01:27:09.626Z,10.60
2022-12-24T01:29:36.456Z,10.60
2022-12-24T01:32:03.597Z,10.60
2022-12-24T01:34:30.376Z,10.50
2022-12-24T01:36:57.280Z,10.60
2022-12-24T01:39:24.243Z,10.50
2022-12-24T01:42:09.502Z,10.50
2022-12-24T01:44:41.125Z,10.40
2022-12-24T01:47:13.671Z,10.50
2022-12-24T01:49:46.767Z,10.40
2022-12-24T01:52:30.420Z,10.40
2022-12-24T01:55:04.990Z,10.40
2022-12-24T01:57:38.012Z,10.30
2022-12-24T02:00:10.454Z,10.30
2022-12-24T02:02:40.475Z,10.30
2022-12-24T02:05:14.887Z,10.30
2022-12-24T02:07:43.007Z,10.20
2022-12-24T02:10:12.986Z,10.20
2022-12-24T02:12:42.117Z,10.20
2022-12-24T02:15:16.872Z,10.20
2022-12-24T02:18:17.701Z,10.10
2022-12-24T02:21:18.710Z,10.10
2022-12-24T02:23:45.375Z,10.10
2022-12-24T02:26:44.428Z,10.00
2022-12-24T02:29:47.783Z,10.10
2022-12-24T02:32:28.478Z,10.00
2022-12-24T02:35:02.071Z,10.00
2022-12-24T02:37:35.950Z,10.00
2022-12-24T02:40:31.603Z,10.00
2022-12-24T02:43:09.835Z,9.90
2022-12-24T02:45:40.155Z,9.90
2022-12-24T02:48:07.690Z,9.90
2022-12-24T02:50:35.608Z,9.90
2022-12-24T02:53:02.327Z,9.90
2022-12-24T02:56:08.403Z,9.90
2022-12-24T02:58:55.949Z,9.80
2022-12-24T03:01:30.986Z,9.80
2022-12-24T03:04:15.966Z,9.80
2022-12-24T03:07:00.559Z,9.80
2022-12-24T03:09:32.734Z,9.80
2022-12-24T03:12:21.265Z,9.80
2022-12-24T03:14:49.588Z,9.80
2022-12-24T03:17:18.930Z,9.80
2022-12-24T03:19:47.009Z,9.80
2022-12-24T03:22:14.142Z,9.80
2022-12-24T03:24:40.847Z,9.80
2022-12-24T03:27:09.810Z,9.80
2022-12-24T03:29:38.587Z,9.90
2022-12-24T03:32:05.339Z,9.90
2022-12-24T03:34:32.227Z,9.90
2022-12-24T03:36:59.008Z,10.00
2022-12-24T03:39:25.701Z,10.00
2022-12-24T03:41:52.613Z,10.00
2022-12-24T03:44:19.304Z,10.00
2022-12-24T03:46:45.996Z,10.10
2022-12-24T03:49:12.726Z,10.10
2022-12-24T03:51:39.424Z,10.10
2022-12-24T03:54:06.147Z,10.20
2022-12-24T03:56:32.921Z,10.20
2022-12-24T03:58:59.663Z,10.20
2022-12-24T04:01:26.448Z,10.30
2022-12-24T04:03:53.164Z,10.30
2022-12-24T04:06:19.892Z,10.30
2022-12-24T04:08:46.650Z,10.40
2022-12-24T04:11:15.701Z,10.40
2022-12-24T04:13:42.855Z,10.40
2022-12-24T04:16:12.484Z,10.40
2022-12-24T04:18:39.443Z,10.50
2022-12-24T04:21:07.416Z,10.50
2022-12-24T04:23:35.958Z,10.50
2022-12-24T04:26:04.829Z,10.50
2022-12-24T04:28:32.713Z,10.60
2022-12-24T04:31:00.822Z,10.60
2022-12-24T04:33:27.829Z,10.60
2022-12-24T04:35:56.985Z,10.60
2022-12-24T04:38:23.721Z,10.60
2022-12-24T04:41:01.823Z,10.60
2022-12-24T04:43:30.018Z,10.70
2022-12-24T04:45:57.472Z,10.70
2022-12-24T04:48:24.289Z,10.70
2022-12-24T04:50:51.155Z,10.70
2022-12-24T04:53:17.893Z,10.70
2022-12-24T04:55:45.895Z,10.70
2022-12-24T04:58:13.808Z,10.80
2022-12-24T05:00:41.367Z,10.80
2022-12-24T05:03:08.193Z,10.80
2022-12-24T05:05:35.083Z,10.80
2022-12-24T05:08:01.931Z,10.80
2022-12-24T05:10:28.842Z,10.80
2022-12-24T05:12:55.691Z,10.80
2022-12-24T05:15:22.572Z,10.90
2022-12-24T05:17:49.280Z,10.90
2022-12-24T05:20:16.193Z,10.90
2022-12-24T05:23:01.487Z,10.90
2022-12-24T05:25:53.116Z,10.90
2022-12-24T05:28:19.907Z,10.90
2022-12-24T05:30:46.835Z,10.90
2022-12-24T05:33:13.868Z,10.90
2022-12-24T05:35:40.865Z,10.90
2022-12-24T05:38:07.525Z,10.90
2022-12-24T05:40:34.180Z,10.90
2022-12-24T05:43:00.864Z,10.90
2022-12-24T05:45:28.350Z,11.00
2022-12-24T05:47:55.054Z,11.00
2022-12-24T05:50:21.839Z,11.00
2022-12-24T05:52:48.543Z,11.00
2022-12-24T05:55:15.323Z,11.00
2022-12-24T05:57:42.146Z,11.00
2022-12-24T06:00:09.552Z,11.00
2022-12-24T06:02:36.266Z,11.00
2022-12-24T06:05:03.138Z,11.00
2022-12-24T06:07:29.872Z,11.00
2022-12-24T06:09:56.530Z,11.00
2022-12-24T06:12:23.285Z,11.00
2022-12-24T06:14:49.996Z,11.00
2022-12-24T06:17:16.780Z,11.00
2022-12-24T06:19:43.523Z,11.00
2022-12-24T06:22:10.368Z,11.00
2022-12-24T06:24:37.087Z,11.00
2022-12-24T06:27:03.967Z,11.00
2022-12-24T06:29:30.621Z,11.00
2022-12-24T06:31:57.377Z,11.00
2022-12-24T06:34:24.201Z,11.00
2022-12-24T06:36:50.896Z,11.00
2022-12-24T06:39:17.563Z,11.00
2022-12-24T06:41:44.315Z,11.00
2022-12-24T06:44:11.020Z,11.00
2022-12-24T06:46:37.841Z,11.10
2022-12-24T06:49:04.560Z,11.10
2022-12-24T06:51:31.223Z,11.10
2022-12-24T06:53:58.009Z,11.10
2022-12-24T06:56:24.776Z,11.10
2022-12-24T06:58:51.632Z,11.10
2022-12-24T07:01:19.887Z,11.10
2022-12-24T07:03:47.392Z,11.10
2022-12-24T07:06:29.216Z,11.10
2022-12-24T07:08:56.193Z,11.10
2022-12-24T07:11:24.616Z,11.10
2022-12-24T07:13:51.439Z,11.10
2022-12-24T07:16:18.558Z,11.10
2022-12-24T07:18:45.683Z,11.00
2022-12-24T07:21:12.437Z,11.00
2022-12-24T07:23:39.176Z,11.00
2022-12-24T07:26:07.145Z,11.00
2022-12-24T07:28:33.906Z,11.00
2022-12-24T07:31:01.010Z,11.00
2022-12-24T07:33:27.909Z,10.90
2022-12-24T07:36:06.355Z,10.90
2022-12-24T07:38:34.190Z,10.90
2022-12-24T07:41:01.116Z,10.90
2022-12-24T07:43:28.353Z,10.80
2022-12-24T07:45:57.508Z,10.80
2022-12-24T07:48:25.583Z,10.80
2022-12-24T07:50:52.927Z,10.80
2022-12-24T07:53:19.815Z,10.80
2022-12-24T07:55:46.548Z,10.80
2022-12-24T07:58:13.407Z,10.80
2022-12-24T08:00:40.220Z,10.80
2022-12-24T08:03:07.055Z,10.80
2022-12-24T08:05:37.222Z,10.80
2022-12-24T08:08:04.018Z,10.80
2022-12-24T08:10:30.736Z,10.80
2022-12-24T08:12:57.475Z,10.80
2022-12-24T08:15:24.159Z,10.80
2022-12-24T08:17:50.945Z,10.80
2022-12-24T08:20:17.703Z,10.80
2022-12-24T08:22:44.513Z,10.80
2022-12-24T08:25:11.233Z,10.80
2022-12-24T08:27:38.025Z,10.90
2022-12-24T08:30:06.190Z,10.90
2022-12-24T08:32:33.080Z,10.90
2022-12-24T08:35:00.636Z,10.90
2022-12-24T08:37:27.387Z,11.00
2022-12-24T08:39:54.105Z,11.00
2022-12-24T08:42:20.858Z,11.00
2022-12-24T08:44:47.605Z,11.00
2022-12-24T08:47:14.280Z,11.00
2022-12-24T08:49:41.031Z,11.10
2022-12-24T08:52:07.750Z,11.10
2022-12-24T08:54:34.497Z,11.10
2022-12-24T08:57:01.180Z,11.10
2022-12-24T08:59:27.881Z,11.20
2022-12-24T09:01:54.744Z,11.20
2022-12-24T09:04:21.594Z,11.20
2022-12-24T09:06:48.280Z,11.20
2022-12-24T09:09:14.961Z,11.20
2022-12-24T09:11:41.730Z,11.20
2022-12-24T09:14:08.418Z,11.30
2022-12-24T09:16:35.267Z,11.30
2022-12-24T09:19:02.031Z,11.30
2022-12-24T09:21:29.197Z,11.30
2022-12-24T09:23:55.979Z,11.30
2022-12-24T09:26:25.356Z,11.30
2022-12-24T09:28:52.766Z,11.30
2022-12-24T09:31:20.347Z,11.30
2022-12-24T09:33:50.254Z,11.40
2022-12-24T09:36:17.513Z,11.30
2022-12-24T09:38:44.737Z,11.40
2022-12-24T09:41:15.112Z,11.30
2022-12-24T09:43:46.139Z,11.30
2022-12-24T09:46:36.076Z,11.30
2022-12-24T09:49:07.111Z,11.30
2022-12-24T09:51:41.759Z,11.30
2022-12-24T09:54:43.016Z,11.40
2022-12-24T09:57:28.098Z,11.40
2022-12-24T09:59:56.170Z,11.30
2022-12-24T10:02:23.114Z,11.40
2022-12-24T10:04:50.158Z,11.40
2022-12-24T10:07:47.910Z,11.30
2022-12-24T10:10:26.467Z,11.40
2022-12-24T10:13:24.100Z,11.40
2022-12-24T10:16:00.797Z,11.40
2022-12-24T10:19:02.768Z,11.40
2022-12-24T10:21:33.617Z,11.40
2022-12-24T10:24:09.791Z,11.50
2022-12-24T10:26:58.939Z,11.50
2022-12-24T10:29:32.291Z,11.50
2022-12-24T10:32:08.993Z,11.50
2022-12-24T10:34:41.725Z,11.60
2022-12-24T10:37:16.458Z,11.60
2022-12-24T10:39:43.713Z,11.70
2022-12-24T10:42:13.314Z,11.70
2022-12-24T10:44:40.086Z,11.70
2022-12-24T10:47:09.577Z,11.80
2022-12-24T10:49:56.816Z,11.80
2022-12-24T10:52:28.904Z,11.80
2022-12-24T10:55:28.173Z,11.80
2022-12-24T10:58:21.276Z,11.80
2022-12-24T11:00:53.038Z,11.90
2022-12-24T11:03:24.168Z,11.80
2022-12-24T11:06:01.029Z,11.90
2022-12-24T11:08:27.959Z,11.90
2022-12-24T11:11:07.393Z,11.90
2022-12-24T11:13:39.709Z,11.90
2022-12-24T11:16:25.144Z,11.90
2022-12-24T11:18:54.827Z,11.90
2022-12-24T11:21:23.042Z,11.90
2022-12-24T11:23:58.643Z,11.90
2022-12-24T11:26:29.478Z,11.90
2022-12-24T11:29:14.787Z,11.90
2022-12-24T11:31:43.820Z,11.90
2022-12-24T11:34:31.591Z,11.80
2022-12-24T11:37:27.917Z,11.90
2022-12-24T11:39:59.867Z,11.90
2022-12-24T11:42:36.982Z,11.80
2022-12-24T11:45:20.176Z,11.80
2022-12-24T11:47:47.192Z,11.80
2022-12-24T11:50:22.719Z,11.90
2022-12-24T11:52:59.153Z,11.90
2022-12-24T11:55:50.412Z,11.90
2022-12-24T11:58:40.457Z,11.90
2022-12-24T12:01:30.564Z,11.90
2022-12-24T12:04:10.780Z,11.90
2022-12-24T12:07:01.227Z,11.90
2022-12-24T12:09:32.292Z,11.90
2022-12-24T12:12:05.592Z,11.90
2022-12-24T12:14:38.197Z,11.90
2022-12-24T12:17:27.097Z,11.90
2022-12-24T12:20:18.961Z,12.00
2022-12-24T12:23:13.662Z,12.00
2022-12-24T12:26:10.521Z,12.00
2022-12-24T12:28:51.481Z,12.00
2022-12-24T12:31:23.746Z,12.00
2022-12-24T12:34:03.372Z,12.00
2022-12-24T12:36:46.540Z,12.00
2022-12-24T12:39:13.244Z,11.90
2022-12-24T12:42:13.969Z,11.90
2022-12-24T12:44:44.707Z,11.90
2022-12-24T12:47:48.702Z,11.90
2022-12-24T12:50:18.207Z,11.90
2022-12-24T12:53:03.311Z,11.90
2022-12-24T12:55:46.256Z,12.00
2022-12-24T12:58:27.538Z,12.00
2022-12-24T13:01:01.445Z,12.00
2022-12-24T13:03:43.212Z,12.00
2022-12-24T13:06:18.966Z,12.00
2022-12-24T13:09:26.448Z,12.00
2022-12-24T13:12:21.071Z,12.00
2022-12-24T13:15:02.564Z,12.00
2022-12-24T13:17:37.074Z,12.00
2022-12-24T13:20:15.615Z,12.00
2022-12-24T13:22:50.261Z,12.00
2022-12-24T13:25:23.081Z,12.00
2022-12-24T13:27:49.835Z,12.00
2022-12-24T13:30:37.791Z,12.00
2022-12-24T13:33:04.947Z,12.10
2022-12-24T13:35:37.933Z,12.10
2022-12-24T13:38:27.357Z,12.10
2022-12-24T13:40:55.805Z,12.10
2022-12-24T13:43:22.564Z,12.10
2022-12-24T13:45:51.381Z,12.10
2022-12-24T13:48:36.395Z,12.10
2022-12-24T13:51:19.907Z,12.10
2022-12-24T13:53:48.629Z,12.10
2022-12-24T13:56:18.044Z,12.10
2022-12-24T13:58:48.799Z,12.10
2022-12-24T14:01:19.535Z,12.10
2022-12-24T14:03:52.962Z,12.10
2022-12-24T14:06:32.399Z,12.10
2022-12-24T14:09:13.827Z,12.10
2022-12-24T14:11:59.116Z,12.10
2022-12-24T14:14:34.902Z,12.10
2022-12-24T14:17:12.074Z,12.10
2022-12-24T14:19:41.019Z,12.10
2022-12-24T14:22:22.773Z,12.10
2022-12-24T14:25:15.213Z,12.10
2022-12-24T14:27:41.880Z,12.10
2022-12-24T14:30:16.717Z,12.10
2022-12-24T14:32:43.625Z,12.10
2022-12-24T14:35:18.655Z,12.10
2022-12-24T14:38:09.221Z,12.10
2022-12-24T14:40:50.043Z,12.10
2022-12-24T14:43:32.983Z,12.10
2022-12-24T14:46:50.388Z,12.10
2022-12-24T14:49:25.258Z,12.10
2022-12-24T14:51:51.924Z,12.10
2022-12-24T14:54:35.636Z,12.10
2022-12-24T14:57:11.650Z,12.10
2022-12-24T14:59:45.829Z,12.10
2022-12-24T15:02:40.081Z,12.10
2022-12-24T15:05:24.482Z,12.10
2022-12-24T15:08:03.480Z,12.10
2022-12-24T15:10:43.837Z,12.10
2022-12-24T15:13:28.837Z,12.10
2022-12-24T15:15:57.778Z,12.00
2022-12-24T15:18:27.856Z,12.00
2022-12-24T15:21:03.760Z,12.00
2022-12-24T15:23:34.414Z,11.90
2022-12-24T15:26:36.961Z,11.80
2022-12-24T15:29:20.839Z,11.80
2022-12-24T15:31:53.477Z,11.70
2022-12-24T15:34:30.500Z,11.70
2022-12-24T15:37:22.680Z,11.60
2022-12-24T15:39:56.815Z,11.60
2022-12-24T15:42:25.444Z,11.50
2022-12-24T15:44:54.923Z,11.50
2022-12-24T15:47:47.414Z,11.40
2022-12-24T15:50:33.717Z,11.40
2022-12-24T15:53:19.747Z,11.40
2022-12-24T15:56:09.970Z,11.30
2022-12-24T15:58:44.551Z,11.30
2022-12-24T16:01:15.224Z,11.30
2022-12-24T16:04:02.496Z,11.20
2022-12-24T16:06:59.228Z,11.10
2022-12-24T16:09:33.347Z,11.10
2022-12-24T16:12:03.375Z,11.00
2022-12-24T16:14:31.351Z,11.00
2022-12-24T16:16:58.728Z,10.90
2022-12-24T16:19:37.638Z,10.80
2022-12-24T16:22:25.569Z,10.80
2022-12-24T16:24:52.672Z,10.70
2022-12-24T16:27:19.374Z,10.70
2022-12-24T16:29:47.006Z,10.60
2022-12-24T16:32:35.157Z,10.60
2022-12-24T16:35:03.901Z,10.50
2022-12-24T16:37:30.635Z,10.50
2022-12-24T16:39:57.449Z,10.40
2022-12-24T16:42:42.891Z,10.30
2022-12-24T16:45:10.459Z,10.30
2022-12-24T16:47:42.808Z,10.20
2022-12-24T16:50:16.143Z,10.10
2022-12-24T16:52:42.922Z,10.10
2022-12-24T16:55:13.744Z,10.00
2022-12-24T16:57:41.956Z,10.00
2022-12-24T17:00:14.732Z,9.90
2022-12-24T17:02:41.721Z,9.80
2022-12-24T17:05:09.018Z,9.80
2022-12-24T17:07:41.262Z,9.70
2022-12-24T17:10:12.206Z,9.70
2022-12-24T17:12:39.088Z,9.60
2022-12-24T17:15:06.193Z,9.50
2022-12-24T17:17:33.015Z,9.50
2022-12-24T17:19:59.833Z,9.40
2022-12-24T17:22:29.795Z,9.40
2022-12-24T17:24:56.927Z,9.30
2022-12-24T17:27:23.940Z,9.30
2022-12-24T17:29:50.989Z,9.20
2022-12-24T17:32:17.714Z,9.20
2022-12-24T17:34:44.645Z,9.10
2022-12-24T17:37:11.487Z,9.10
2022-12-24T17:39:38.254Z,9.00
2022-12-24T17:42:05.110Z,9.00
2022-12-24T17:44:32.015Z,8.90
2022-12-24T17:46:58.964Z,8.90
2022-12-24T17:49:25.757Z,8.90
2022-12-24T17:51:52.506Z,8.80
2022-12-24T17:54:19.243Z,8.80
2022-12-24T17:56:45.983Z,8.70
2022-12-24T17:59:12.902Z,8.70
2022-12-24T18:01:39.795Z,8.60
2022-12-24T18:04:06.885Z,8.60
2022-12-24T18:06:34.023Z,8.50
2022-12-24T18:09:00.905Z,8.50
2022-12-24T18:11:32.570Z,8.40
2022-12-24T18:14:01.438Z,8.40
2022-12-24T18:16:32.421Z,8.30
2022-12-24T18:18:59.990Z,8.30
2022-12-24T18:21:30.430Z,8.20
2022-12-24T18:23:57.701Z,8.20
2022-12-24T18:26:26.655Z,8.20
2022-12-24T18:28:54.751Z,8.10
2022-12-24T18:31:22.677Z,8.10
2022-12-24T18:33:51.012Z,8.00
2022-12-24T18:36:18.353Z,8.00
2022-12-24T18:38:45.410Z,8.00
2022-12-24T18:41:19.510Z,8.00
2022-12-24T18:43:46.241Z,7.90
2022-12-24T18:46:15.416Z,7.90
2022-12-24T18:48:42.676Z,7.90
2022-12-24T18:51:10.145Z,7.90
2022-12-24T18:53:38.891Z,7.80
2022-12-24T18:56:08.229Z,7.80
2022-12-24T18:58:35.131Z,7.80
2022-12-24T19:01:01.857Z,7.80
2022-12-24T19:03:28.642Z,7.70
2022-12-24T19:06:01.591Z,7.70
2022-12-24T19:08:56.402Z,7.80
2022-12-24T19:11:16.529Z,7.70
2022-12-24T19:13:49.506Z,7.70
2022-12-24T19:16:17.105Z,7.70
2022-12-24T19:18:44.028Z,7.70
2022-12-24T19:21:13.367Z,7.70
2022-12-24T19:23:40.076Z,7.70
2022-12-24T19:26:06.892Z,7.70
2022-12-24T19:28:33.856Z,7.70
2022-12-24T19:31:05.809Z,7.70
2022-12-24T19:33:42.172Z,7.70
2022-12-24T19:36:11.836Z,7.60
2022-12-24T19:38:38.553Z,7.60
2022-12-24T19:41:16.948Z,7.60
2022-12-24T19:43:48.964Z,7.60
2022-12-24T19:46:18.800Z,7.60
2022-12-24T19:48:50.229Z,7.60
2022-12-24T19:51:17.776Z,7.60
2022-12-24T19:53:44.581Z,7.60
2022-12-24T19:56:16.066Z,7.60
2022-12-24T19:58:43.080Z,7.60
2022-12-24T20:01:16.570Z,7.60
2022-12-24T20:03:44.958Z,7.60
2022-12-24T20:06:12.907Z,7.60
2022-12-24T20:08:40.312Z,7.60
2022-12-24T20:11:18.852Z,7.60
2022-12-24T20:13:45.862Z,7.60
2022-12-24T20:16:15.957Z,7.60
2022-12-24T20:18:43.132Z,7.60
2022-12-24T20:21:12.210Z,7.60
2022-12-24T20:23:40.545Z,7.70
2022-12-24T20:26:09.003Z,7.70
2022-12-24T20:28:36.890Z,7.70
2022-12-24T20:31:24.185Z,7.70
2022-12-24T20:33:51.286Z,7.80
2022-12-24T20:36:19.915Z,7.80
2022-12-24T20:38:47.795Z,7.80
2022-12-24T20:41:16.506Z,7.90
2022-12-24T20:43:48.414Z,8.00
2022-12-24T20:46:16.857Z,8.00
2022-12-24T20:48:43.951Z,8.10
2022-12-24T20:51:23.262Z,8.20
2022-12-24T20:53:53.112Z,8.20
2022-12-24T20:56:20.101Z,8.30
2022-12-24T20:58:47.071Z,8.30
2022-12-24T21:01:24.291Z,8.40
2022-12-24T21:03:52.283Z,8.50
2022-12-24T21:06:19.506Z,8.50
2022-12-24T21:08:49.168Z,8.60
2022-12-24T21:11:34.647Z,8.60
2022-12-24T21:14:02.210Z,8.70
2022-12-24T21:16:33.828Z,8.70
2022-12-24T21:19:00.880Z,8.80
2022-12-24T21:21:27.783Z,8.90
2022-12-24T21:23:54.570Z,8.90
2022-12-24T21:26:21.424Z,8.90
2022-12-24T21:28:48.985Z,8.90
2022-12-24T21:31:16.044Z,9.00
2022-12-24T21:33:43.106Z,9.00
2022-12-24T21:36:12.284Z,9.00
2022-12-24T21:38:39.100Z,9.00
2022-12-24T21:41:09.085Z,9.00
2022-12-24T21:43:36.967Z,9.00
2022-12-24T21:46:16.634Z,9.00
2022-12-24T21:49:02.359Z,9.00
2022-12-24T21:51:30.110Z,9.00
2022-12-24T21:54:15.611Z,9.10
2022-12-24T21:57:01.311Z,9.00
2022-12-24T21:59:28.144Z,9.00
2022-12-24T22:01:56.076Z,9.00
2022-12-24T22:04:23.586Z,9.00
2022-12-24T22:07:09.003Z,9.00
2022-12-24T22:09:54.504Z,9.00
2022-12-24T22:12:21.321Z,9.00
2022-12-24T22:14:48.277Z,9.00
2022-12-24T22:17:19.799Z,9.00
2022-12-24T22:19:49.745Z,9.00
2022-12-24T22:22:16.533Z,8.90
2022-12-24T22:24:43.277Z,8.90
2022-12-24T22:27:09.961Z,8.90
2022-12-24T22:29:36.734Z,8.90
2022-12-24T22:32:03.490Z,8.90
2022-12-24T22:34:31.663Z,8.90
2022-12-24T22:36:58.419Z,8.90
2022-12-24T22:39:25.220Z,8.90
2022-12-24T22:41:57.846Z,8.90
2022-12-24T22:44:25.131Z,8.90
2022-12-24T22:46:52.004Z,8.90
2022-12-24T22:49:18.808Z,8.90
2022-12-24T22:51:45.506Z,8.90
2022-12-24T22:54:12.284Z,8.80
2022-12-24T22:56:41.582Z,8.80
2022-12-24T22:59:12.271Z,8.80
2022-12-24T23:01:40.937Z,8.80
2022-12-24T23:04:08.133Z,8.80
2022-12-24T23:06:35.479Z,8.80
2022-12-24T23:09:04.184Z,8.80
2022-12-24T23:11:30.926Z,8.80
2022-12-24T23:14:16.268Z,8.80
2022-12-24T23:16:43.014Z,8.80
2022-12-24T23:19:09.967Z,8.80
2022-12-24T23:21:36.697Z,8.80
2022-12-24T23:24:03.843Z,8.80
2022-12-24T23:26:30.836Z,8.80
2022-12-24T23:28:57.926Z,8.80
2022-12-24T23:31:25.222Z,8.80
2022-12-24T23:33:52.725Z,8.80
2022-12-24T23:36:19.776Z,8.80
2022-12-24T23:38:46.742Z,8.80
2022-12-24T23:41:15.696Z,8.80
2022-12-24T23:43:42.355Z,8.90
2022-12-24T23:46:15.855Z,8.90
2022-12-24T23:48:43.048Z,8.90
2022-12-24T23:51:16.274Z,8.90
2022-12-24T23:53:43.320Z,8.90
2022-12-24T23:56:11.557Z,9.00
2022-12-24T23:58:40.294Z,9.00
